sensor_id;sensor_type;location;lat;lon;timestamp;temperature;humidity
46440;DHT22;32138;50.966;6.968;2022-07-29T00:00:30;21.30;54.20
46440;DHT22;32138;50.966;6.968;2022-07-29T00:02:32;21.20;54.30
46440;DHT22;32138;50.966;6.968;2022-07-29T00:04:36;21.20;54.30
46440;DHT22;32138;50.966;6.968;2022-07-29T00:06:37;21.20;54.50
46440;DHT22;32138;50.966;6.968;2022-07-29T00:08:38;21.20;54.50
46440;DHT22;32138;50.966;6.968;2022-07-29T00:10:38;21.20;54.50
46440;DHT22;32138;50.966;6.968;2022-07-29T00:12:39;21.30;54.40
46440;DHT22;32138;50.966;6.968;2022-07-29T00:14:40;21.20;54.50
46440;DHT22;32138;50.966;6.968;2022-07-29T00:16:41;21.20;54.70
46440;DHT22;32138;50.966;6.968;2022-07-29T00:18:42;21.10;54.70
46440;DHT22;32138;50.966;6.968;2022-07-29T00:20:42;21.10;54.30
46440;DHT22;32138;50.966;6.968;2022-07-29T00:22:43;21.10;54.70
46440;DHT22;32138;50.966;6.968;2022-07-29T00:24:44;21.10;54.60
46440;DHT22;32138;50.966;6.968;2022-07-29T00:26:45;21.20;54.80
46440;DHT22;32138;50.966;6.968;2022-07-29T00:28:45;21.20;54.60
46440;DHT22;32138;50.966;6.968;2022-07-29T00:30:46;21.20;54.20
46440;DHT22;32138;50.966;6.968;2022-07-29T00:32:47;21.20;54.40
46440;DHT22;32138;50.966;6.968;2022-07-29T00:34:48;21.20;55.40
46440;DHT22;32138;50.966;6.968;2022-07-29T00:37:07;21.20;54.40
46440;DHT22;32138;50.966;6.968;2022-07-29T00:39:08;21.20;54.60
46440;DHT22;32138;50.966;6.968;2022-07-29T00:41:08;21.10;55.20
46440;DHT22;32138;50.966;6.968;2022-07-29T00:43:11;21.00;56.00
46440;DHT22;32138;50.966;6.968;2022-07-29T00:45:13;20.90;56.00
46440;DHT22;32138;50.966;6.968;2022-07-29T00:47:14;20.90;56.00
46440;DHT22;32138;50.966;6.968;2022-07-29T00:49:15;20.90;55.40
46440;DHT22;32138;50.966;6.968;2022-07-29T00:51:16;20.90;55.30
46440;DHT22;32138;50.966;6.968;2022-07-29T00:53:17;21.10;55.20
46440;DHT22;32138;50.966;6.968;2022-07-29T00:55:18;21.10;55.10
46440;DHT22;32138;50.966;6.968;2022-07-29T00:57:20;21.10;55.10
46440;DHT22;32138;50.966;6.968;2022-07-29T00:59:20;21.10;55.10
46440;DHT22;32138;50.966;6.968;2022-07-29T01:01:21;21.20;55.10
46440;DHT22;32138;50.966;6.968;2022-07-29T01:03:22;21.10;55.10
46440;DHT22;32138;50.966;6.968;2022-07-29T01:05:24;21.20;55.00
46440;DHT22;32138;50.966;6.968;2022-07-29T01:07:27;21.10;55.30
46440;DHT22;32138;50.966;6.968;2022-07-29T01:09:31;21.00;55.80
46440;DHT22;32138;50.966;6.968;2022-07-29T01:11:33;21.00;55.60
46440;DHT22;32138;50.966;6.968;2022-07-29T01:13:34;20.90;55.70
46440;DHT22;32138;50.966;6.968;2022-07-29T01:15:43;20.90;56.40
46440;DHT22;32138;50.966;6.968;2022-07-29T01:20:20;20.90;56.50
46440;DHT22;32138;50.966;6.968;2022-07-29T01:29:32;21.10;56.70
46440;DHT22;32138;50.966;6.968;2022-07-29T01:34:07;21.00;56.40
46440;DHT22;32138;50.966;6.968;2022-07-29T01:36:14;21.00;56.50
46440;DHT22;32138;50.966;6.968;2022-07-29T01:38:21;20.90;57.10
46440;DHT22;32138;50.966;6.968;2022-07-29T01:40:30;20.90;57.20
46440;DHT22;32138;50.966;6.968;2022-07-29T01:42:43;20.90;57.50
46440;DHT22;32138;50.966;6.968;2022-07-29T01:44:50;20.80;57.70
46440;DHT22;32138;50.966;6.968;2022-07-29T01:46:58;20.80;57.80
46440;DHT22;32138;50.966;6.968;2022-07-29T01:49:16;20.80;57.60
46440;DHT22;32138;50.966;6.968;2022-07-29T01:51:19;20.90;57.80
46440;DHT22;32138;50.966;6.968;2022-07-29T01:53:35;21.00;57.00
46440;DHT22;32138;50.966;6.968;2022-07-29T01:55:42;21.00;57.10
46440;DHT22;32138;50.966;6.968;2022-07-29T01:57:46;21.00;57.30
46440;DHT22;32138;50.966;6.968;2022-07-29T01:59:51;20.90;57.50
46440;DHT22;32138;50.966;6.968;2022-07-29T02:01:53;20.80;57.90
46440;DHT22;32138;50.966;6.968;2022-07-29T02:03:56;20.70;57.80
46440;DHT22;32138;50.966;6.968;2022-07-29T02:05:58;20.80;57.80
46440;DHT22;32138;50.966;6.968;2022-07-29T02:08:01;20.80;57.10
46440;DHT22;32138;50.966;6.968;2022-07-29T02:10:04;20.80;56.70
46440;DHT22;32138;50.966;6.968;2022-07-29T02:12:07;20.80;57.00
46440;DHT22;32138;50.966;6.968;2022-07-29T02:14:10;20.80;57.40
46440;DHT22;32138;50.966;6.968;2022-07-29T02:16:14;20.80;57.20
46440;DHT22;32138;50.966;6.968;2022-07-29T02:18:17;20.80;57.00
46440;DHT22;32138;50.966;6.968;2022-07-29T02:20:19;20.80;57.10
46440;DHT22;32138;50.966;6.968;2022-07-29T02:22:21;20.70;57.60
46440;DHT22;32138;50.966;6.968;2022-07-29T02:24:24;20.80;57.30
46440;DHT22;32138;50.966;6.968;2022-07-29T02:26:26;20.90;57.00
46440;DHT22;32138;50.966;6.968;2022-07-29T02:28:29;20.90;57.00
46440;DHT22;32138;50.966;6.968;2022-07-29T02:30:31;20.70;58.10
46440;DHT22;32138;50.966;6.968;2022-07-29T02:32:35;20.60;58.30
46440;DHT22;32138;50.966;6.968;2022-07-29T02:34:38;20.60;58.80
46440;DHT22;32138;50.966;6.968;2022-07-29T02:36:41;20.50;59.00
46440;DHT22;32138;50.966;6.968;2022-07-29T02:38:44;20.40;58.70
46440;DHT22;32138;50.966;6.968;2022-07-29T02:40:51;20.40;58.80
46440;DHT22;32138;50.966;6.968;2022-07-29T02:42:54;20.40;59.40
46440;DHT22;32138;50.966;6.968;2022-07-29T02:44:55;20.40;58.90
46440;DHT22;32138;50.966;6.968;2022-07-29T02:47:21;20.30;58.90
46440;DHT22;32138;50.966;6.968;2022-07-29T02:49:37;20.30;59.40
46440;DHT22;32138;50.966;6.968;2022-07-29T02:52:02;20.20;59.60
46440;DHT22;32138;50.966;6.968;2022-07-29T02:54:07;20.20;59.70
46440;DHT22;32138;50.966;6.968;2022-07-29T02:56:12;20.20;59.40
46440;DHT22;32138;50.966;6.968;2022-07-29T02:58:33;20.20;59.80
46440;DHT22;32138;50.966;6.968;2022-07-29T03:00:37;20.40;59.40
46440;DHT22;32138;50.966;6.968;2022-07-29T03:02:44;20.20;58.80
46440;DHT22;32138;50.966;6.968;2022-07-29T03:04:46;20.10;59.00
46440;DHT22;32138;50.966;6.968;2022-07-29T03:06:49;20.10;59.00
46440;DHT22;32138;50.966;6.968;2022-07-29T03:08:51;20.20;58.90
46440;DHT22;32138;50.966;6.968;2022-07-29T03:10:53;20.40;58.90
46440;DHT22;32138;50.966;6.968;2022-07-29T03:12:55;20.30;58.70
46440;DHT22;32138;50.966;6.968;2022-07-29T03:14:57;20.30;58.50
46440;DHT22;32138;50.966;6.968;2022-07-29T03:17:00;20.30;58.70
46440;DHT22;32138;50.966;6.968;2022-07-29T03:19:00;20.20;58.80
46440;DHT22;32138;50.966;6.968;2022-07-29T03:21:03;20.40;58.60
46440;DHT22;32138;50.966;6.968;2022-07-29T03:23:03;20.30;58.50
46440;DHT22;32138;50.966;6.968;2022-07-29T03:25:08;20.30;58.30
46440;DHT22;32138;50.966;6.968;2022-07-29T03:27:12;20.40;58.50
46440;DHT22;32138;50.966;6.968;2022-07-29T03:29:13;20.50;59.00
46440;DHT22;32138;50.966;6.968;2022-07-29T03:31:14;20.40;58.10
46440;DHT22;32138;50.966;6.968;2022-07-29T03:33:15;20.50;57.90
46440;DHT22;32138;50.966;6.968;2022-07-29T03:35:15;20.50;58.00
46440;DHT22;32138;50.966;6.968;2022-07-29T03:37:22;20.50;57.90
46440;DHT22;32138;50.966;6.968;2022-07-29T03:39:26;20.50;57.70
46440;DHT22;32138;50.966;6.968;2022-07-29T03:41:30;20.40;57.40
46440;DHT22;32138;50.966;6.968;2022-07-29T03:43:36;20.50;57.70
46440;DHT22;32138;50.966;6.968;2022-07-29T03:45:42;20.40;57.50
46440;DHT22;32138;50.966;6.968;2022-07-29T03:47:51;20.40;57.50
46440;DHT22;32138;50.966;6.968;2022-07-29T03:50:05;20.50;57.60
46440;DHT22;32138;50.966;6.968;2022-07-29T03:52:07;20.40;58.00
46440;DHT22;32138;50.966;6.968;2022-07-29T03:54:08;20.30;58.00
46440;DHT22;32138;50.966;6.968;2022-07-29T03:56:09;20.30;58.20
46440;DHT22;32138;50.966;6.968;2022-07-29T03:58:11;20.30;58.20
46440;DHT22;32138;50.966;6.968;2022-07-29T04:00:13;20.30;58.00
46440;DHT22;32138;50.966;6.968;2022-07-29T04:02:16;20.40;57.60
46440;DHT22;32138;50.966;6.968;2022-07-29T04:04:17;20.40;57.50
46440;DHT22;32138;50.966;6.968;2022-07-29T04:06:17;20.40;57.10
46440;DHT22;32138;50.966;6.968;2022-07-29T04:08:18;20.50;57.00
46440;DHT22;32138;50.966;6.968;2022-07-29T04:10:19;20.50;56.80
46440;DHT22;32138;50.966;6.968;2022-07-29T04:12:20;20.50;56.40
46440;DHT22;32138;50.966;6.968;2022-07-29T04:14:21;20.50;56.00
46440;DHT22;32138;50.966;6.968;2022-07-29T04:16:22;20.50;55.90
46440;DHT22;32138;50.966;6.968;2022-07-29T04:18:22;20.50;55.80
46440;DHT22;32138;50.966;6.968;2022-07-29T04:20:23;20.50;55.80
46440;DHT22;32138;50.966;6.968;2022-07-29T04:22:24;20.50;56.20
46440;DHT22;32138;50.966;6.968;2022-07-29T04:24:25;20.50;56.10
46440;DHT22;32138;50.966;6.968;2022-07-29T04:26:26;20.50;56.20
46440;DHT22;32138;50.966;6.968;2022-07-29T04:28:26;20.50;55.60
46440;DHT22;32138;50.966;6.968;2022-07-29T04:30:27;20.50;55.30
46440;DHT22;32138;50.966;6.968;2022-07-29T04:32:29;20.50;55.30
46440;DHT22;32138;50.966;6.968;2022-07-29T04:34:29;20.60;55.30
46440;DHT22;32138;50.966;6.968;2022-07-29T04:36:30;20.50;55.30
46440;DHT22;32138;50.966;6.968;2022-07-29T04:38:31;20.60;55.40
46440;DHT22;32138;50.966;6.968;2022-07-29T04:40:32;20.50;55.40
46440;DHT22;32138;50.966;6.968;2022-07-29T04:42:33;20.50;55.40
46440;DHT22;32138;50.966;6.968;2022-07-29T04:44:34;20.40;56.20
46440;DHT22;32138;50.966;6.968;2022-07-29T04:46:35;20.50;55.60
46440;DHT22;32138;50.966;6.968;2022-07-29T04:48:36;20.50;55.40
46440;DHT22;32138;50.966;6.968;2022-07-29T04:50:40;20.40;55.10
46440;DHT22;32138;50.966;6.968;2022-07-29T04:52:41;20.40;55.70
46440;DHT22;32138;50.966;6.968;2022-07-29T04:54:42;20.40;55.10
46440;DHT22;32138;50.966;6.968;2022-07-29T04:56:42;20.50;55.00
46440;DHT22;32138;50.966;6.968;2022-07-29T04:58:43;20.40;55.20
46440;DHT22;32138;50.966;6.968;2022-07-29T05:00:44;20.50;55.20
46440;DHT22;32138;50.966;6.968;2022-07-29T05:02:45;20.50;55.00
46440;DHT22;32138;50.966;6.968;2022-07-29T05:04:45;20.50;55.00
46440;DHT22;32138;50.966;6.968;2022-07-29T05:06:46;20.50;55.10
46440;DHT22;32138;50.966;6.968;2022-07-29T05:08:47;20.50;55.10
46440;DHT22;32138;50.966;6.968;2022-07-29T05:10:48;20.50;54.70
46440;DHT22;32138;50.966;6.968;2022-07-29T05:12:49;20.40;55.00
46440;DHT22;32138;50.966;6.968;2022-07-29T05:14:50;20.50;55.40
46440;DHT22;32138;50.966;6.968;2022-07-29T05:16:51;20.50;54.90
46440;DHT22;32138;50.966;6.968;2022-07-29T05:18:53;20.40;54.90
46440;DHT22;32138;50.966;6.968;2022-07-29T05:20:54;20.50;55.30
46440;DHT22;32138;50.966;6.968;2022-07-29T05:22:59;20.50;55.60
46440;DHT22;32138;50.966;6.968;2022-07-29T05:25:00;20.50;55.40
46440;DHT22;32138;50.966;6.968;2022-07-29T05:27:00;20.50;55.10
46440;DHT22;32138;50.966;6.968;2022-07-29T05:29:01;20.60;55.20
46440;DHT22;32138;50.966;6.968;2022-07-29T05:31:02;20.60;55.30
46440;DHT22;32138;50.966;6.968;2022-07-29T05:33:03;20.60;55.20
46440;DHT22;32138;50.966;6.968;2022-07-29T05:35:04;20.60;55.30
46440;DHT22;32138;50.966;6.968;2022-07-29T05:37:06;20.60;54.80
46440;DHT22;32138;50.966;6.968;2022-07-29T05:39:06;20.70;55.00
46440;DHT22;32138;50.966;6.968;2022-07-29T05:41:07;20.70;55.50
46440;DHT22;32138;50.966;6.968;2022-07-29T05:43:08;20.70;55.00
46440;DHT22;32138;50.966;6.968;2022-07-29T05:45:09;20.70;55.20
46440;DHT22;32138;50.966;6.968;2022-07-29T05:47:10;20.70;55.30
46440;DHT22;32138;50.966;6.968;2022-07-29T05:49:11;20.70;55.30
46440;DHT22;32138;50.966;6.968;2022-07-29T05:51:12;20.70;55.50
46440;DHT22;32138;50.966;6.968;2022-07-29T05:53:13;20.70;54.80
46440;DHT22;32138;50.966;6.968;2022-07-29T05:55:14;20.70;55.00
46440;DHT22;32138;50.966;6.968;2022-07-29T05:57:16;20.70;55.20
46440;DHT22;32138;50.966;6.968;2022-07-29T05:59:21;20.60;54.70
46440;DHT22;32138;50.966;6.968;2022-07-29T06:01:22;20.60;55.10
46440;DHT22;32138;50.966;6.968;2022-07-29T06:03:23;20.60;55.00
46440;DHT22;32138;50.966;6.968;2022-07-29T06:05:23;20.70;55.40
46440;DHT22;32138;50.966;6.968;2022-07-29T06:07:24;20.60;55.50
46440;DHT22;32138;50.966;6.968;2022-07-29T06:09:25;20.60;55.10
46440;DHT22;32138;50.966;6.968;2022-07-29T06:11:26;20.60;54.90
46440;DHT22;32138;50.966;6.968;2022-07-29T06:13:27;20.60;55.60
46440;DHT22;32138;50.966;6.968;2022-07-29T06:15:28;20.70;55.30
46440;DHT22;32138;50.966;6.968;2022-07-29T06:17:29;20.70;55.30
46440;DHT22;32138;50.966;6.968;2022-07-29T06:19:30;20.70;55.30
46440;DHT22;32138;50.966;6.968;2022-07-29T06:21:31;20.70;55.40
46440;DHT22;32138;50.966;6.968;2022-07-29T06:23:32;20.70;55.40
46440;DHT22;32138;50.966;6.968;2022-07-29T06:25:32;20.70;55.10
46440;DHT22;32138;50.966;6.968;2022-07-29T06:27:35;20.70;55.20
46440;DHT22;32138;50.966;6.968;2022-07-29T06:29:36;20.80;55.70
46440;DHT22;32138;50.966;6.968;2022-07-29T06:31:38;20.90;55.40
46440;DHT22;32138;50.966;6.968;2022-07-29T06:33:39;21.00;55.40
46440;DHT22;32138;50.966;6.968;2022-07-29T06:35:39;21.10;55.10
46440;DHT22;32138;50.966;6.968;2022-07-29T06:37:42;21.20;55.50
46440;DHT22;32138;50.966;6.968;2022-07-29T06:39:43;21.10;54.80
46440;DHT22;32138;50.966;6.968;2022-07-29T06:41:47;21.00;54.70
46440;DHT22;32138;50.966;6.968;2022-07-29T06:43:51;20.90;54.90
46440;DHT22;32138;50.966;6.968;2022-07-29T06:45:52;21.00;54.80
46440;DHT22;32138;50.966;6.968;2022-07-29T06:47:53;20.90;54.60
46440;DHT22;32138;50.966;6.968;2022-07-29T06:49:54;20.80;54.90
46440;DHT22;32138;50.966;6.968;2022-07-29T06:51:55;20.80;55.10
46440;DHT22;32138;50.966;6.968;2022-07-29T06:53:55;20.80;55.40
46440;DHT22;32138;50.966;6.968;2022-07-29T06:56:01;20.80;55.70
46440;DHT22;32138;50.966;6.968;2022-07-29T06:58:03;20.80;55.60
46440;DHT22;32138;50.966;6.968;2022-07-29T07:00:04;20.70;55.70
46440;DHT22;32138;50.966;6.968;2022-07-29T07:02:05;20.60;56.10
46440;DHT22;32138;50.966;6.968;2022-07-29T07:04:06;20.70;56.20
46440;DHT22;32138;50.966;6.968;2022-07-29T07:06:08;20.60;56.30
46440;DHT22;32138;50.966;6.968;2022-07-29T07:08:10;20.70;55.90
46440;DHT22;32138;50.966;6.968;2022-07-29T07:10:11;20.80;55.90
46440;DHT22;32138;50.966;6.968;2022-07-29T07:12:12;20.70;56.30
46440;DHT22;32138;50.966;6.968;2022-07-29T07:14:13;20.80;57.00
46440;DHT22;32138;50.966;6.968;2022-07-29T07:16:13;20.70;57.50
46440;DHT22;32138;50.966;6.968;2022-07-29T07:18:15;20.70;57.40
46440;DHT22;32138;50.966;6.968;2022-07-29T07:20:17;20.80;56.80
46440;DHT22;32138;50.966;6.968;2022-07-29T07:22:18;20.80;56.80
46440;DHT22;32138;50.966;6.968;2022-07-29T07:24:18;20.80;56.80
46440;DHT22;32138;50.966;6.968;2022-07-29T07:26:19;20.80;57.10
46440;DHT22;32138;50.966;6.968;2022-07-29T07:28:20;20.80;56.70
46440;DHT22;32138;50.966;6.968;2022-07-29T07:30:21;20.70;56.50
46440;DHT22;32138;50.966;6.968;2022-07-29T07:32:21;20.80;56.70
46440;DHT22;32138;50.966;6.968;2022-07-29T07:34:22;20.90;56.60
46440;DHT22;32138;50.966;6.968;2022-07-29T07:36:24;21.00;56.40
46440;DHT22;32138;50.966;6.968;2022-07-29T07:38:25;21.10;56.90
46440;DHT22;32138;50.966;6.968;2022-07-29T07:40:25;21.20;56.30
46440;DHT22;32138;50.966;6.968;2022-07-29T07:42:26;21.20;56.20
46440;DHT22;32138;50.966;6.968;2022-07-29T07:44:27;21.10;56.70
46440;DHT22;32138;50.966;6.968;2022-07-29T07:46:28;21.10;56.80
46440;DHT22;32138;50.966;6.968;2022-07-29T07:48:28;21.10;57.70
46440;DHT22;32138;50.966;6.968;2022-07-29T07:50:29;21.00;57.30
46440;DHT22;32138;50.966;6.968;2022-07-29T07:52:30;21.00;57.80
46440;DHT22;32138;50.966;6.968;2022-07-29T07:54:31;20.90;58.00
46440;DHT22;32138;50.966;6.968;2022-07-29T07:56:32;20.90;57.70
46440;DHT22;32138;50.966;6.968;2022-07-29T07:58:33;20.80;57.80
46440;DHT22;32138;50.966;6.968;2022-07-29T08:00:35;20.80;58.50
46440;DHT22;32138;50.966;6.968;2022-07-29T08:02:36;20.80;58.80
46440;DHT22;32138;50.966;6.968;2022-07-29T08:04:38;20.80;59.10
46440;DHT22;32138;50.966;6.968;2022-07-29T08:06:40;20.80;59.70
46440;DHT22;32138;50.966;6.968;2022-07-29T08:08:41;20.80;59.20
46440;DHT22;32138;50.966;6.968;2022-07-29T08:10:42;20.70;59.10
46440;DHT22;32138;50.966;6.968;2022-07-29T08:13:05;20.70;59.70
46440;DHT22;32138;50.966;6.968;2022-07-29T08:15:07;20.70;60.50
46440;DHT22;32138;50.966;6.968;2022-07-29T08:17:08;20.70;60.30
46440;DHT22;32138;50.966;6.968;2022-07-29T08:19:09;20.60;60.30
46440;DHT22;32138;50.966;6.968;2022-07-29T08:21:11;20.60;60.40
46440;DHT22;32138;50.966;6.968;2022-07-29T08:23:12;20.70;60.40
46440;DHT22;32138;50.966;6.968;2022-07-29T08:25:13;20.70;60.20
46440;DHT22;32138;50.966;6.968;2022-07-29T08:27:13;20.70;60.10
46440;DHT22;32138;50.966;6.968;2022-07-29T08:29:14;20.70;60.60
46440;DHT22;32138;50.966;6.968;2022-07-29T08:31:16;20.60;60.90
46440;DHT22;32138;50.966;6.968;2022-07-29T08:33:17;20.60;61.60
46440;DHT22;32138;50.966;6.968;2022-07-29T08:35:22;20.60;61.70
46440;DHT22;32138;50.966;6.968;2022-07-29T08:37:23;20.60;62.20
46440;DHT22;32138;50.966;6.968;2022-07-29T08:39:24;20.70;61.30
46440;DHT22;32138;50.966;6.968;2022-07-29T08:41:26;20.60;61.40
46440;DHT22;32138;50.966;6.968;2022-07-29T08:43:28;20.70;61.90
46440;DHT22;32138;50.966;6.968;2022-07-29T08:45:29;20.70;61.90
46440;DHT22;32138;50.966;6.968;2022-07-29T08:47:30;20.70;63.00
46440;DHT22;32138;50.966;6.968;2022-07-29T08:49:33;20.80;62.90
46440;DHT22;32138;50.966;6.968;2022-07-29T08:51:38;20.80;63.30
46440;DHT22;32138;50.966;6.968;2022-07-29T08:53:42;20.90;62.90
46440;DHT22;32138;50.966;6.968;2022-07-29T08:55:47;20.90;62.60
46440;DHT22;32138;50.966;6.968;2022-07-29T08:57:49;21.00;63.00
46440;DHT22;32138;50.966;6.968;2022-07-29T08:59:52;21.00;61.70
46440;DHT22;32138;50.966;6.968;2022-07-29T09:01:57;21.10;60.90
46440;DHT22;32138;50.966;6.968;2022-07-29T09:04:01;21.10;61.30
46440;DHT22;32138;50.966;6.968;2022-07-29T09:06:04;21.00;61.80
46440;DHT22;32138;50.966;6.968;2022-07-29T09:08:06;21.10;61.20
46440;DHT22;32138;50.966;6.968;2022-07-29T09:10:07;21.10;61.60
46440;DHT22;32138;50.966;6.968;2022-07-29T09:12:09;21.20;61.20
46440;DHT22;32138;50.966;6.968;2022-07-29T09:14:13;21.20;60.40
46440;DHT22;32138;50.966;6.968;2022-07-29T09:16:14;21.20;61.00
46440;DHT22;32138;50.966;6.968;2022-07-29T09:20:37;21.20;63.90
46440;DHT22;32138;50.966;6.968;2022-07-29T09:22:56;21.30;63.20
46440;DHT22;32138;50.966;6.968;2022-07-29T09:24:57;21.50;62.70
46440;DHT22;32138;50.966;6.968;2022-07-29T09:26:58;21.60;63.40
46440;DHT22;32138;50.966;6.968;2022-07-29T09:28:59;21.40;62.90
46440;DHT22;32138;50.966;6.968;2022-07-29T09:31:00;21.30;63.30
46440;DHT22;32138;50.966;6.968;2022-07-29T09:33:03;21.20;63.60
46440;DHT22;32138;50.966;6.968;2022-07-29T09:35:17;21.20;63.50
46440;DHT22;32138;50.966;6.968;2022-07-29T09:37:28;21.30;64.30
46440;DHT22;32138;50.966;6.968;2022-07-29T09:39:33;21.30;64.30
46440;DHT22;32138;50.966;6.968;2022-07-29T09:41:53;21.30;64.90
46440;DHT22;32138;50.966;6.968;2022-07-29T09:43:56;21.30;65.30
46440;DHT22;32138;50.966;6.968;2022-07-29T09:46:10;21.30;64.90
46440;DHT22;32138;50.966;6.968;2022-07-29T09:50:18;21.50;64.80
46440;DHT22;32138;50.966;6.968;2022-07-29T09:52:28;21.50;64.50
46440;DHT22;32138;50.966;6.968;2022-07-29T09:54:30;21.60;64.30
46440;DHT22;32138;50.966;6.968;2022-07-29T09:56:40;21.60;64.00
46440;DHT22;32138;50.966;6.968;2022-07-29T09:58:42;21.60;64.20
46440;DHT22;32138;50.966;6.968;2022-07-29T10:00:43;21.60;64.80
46440;DHT22;32138;50.966;6.968;2022-07-29T10:02:46;21.50;65.10
46440;DHT22;32138;50.966;6.968;2022-07-29T10:04:48;21.60;64.70
46440;DHT22;32138;50.966;6.968;2022-07-29T10:06:59;21.60;64.70
46440;DHT22;32138;50.966;6.968;2022-07-29T10:09:08;21.60;64.50
46440;DHT22;32138;50.966;6.968;2022-07-29T10:11:14;21.60;65.10
46440;DHT22;32138;50.966;6.968;2022-07-29T10:13:18;21.60;64.40
46440;DHT22;32138;50.966;6.968;2022-07-29T10:15:19;21.60;64.10
46440;DHT22;32138;50.966;6.968;2022-07-29T10:17:22;21.60;63.60
46440;DHT22;32138;50.966;6.968;2022-07-29T10:19:23;21.60;62.20
46440;DHT22;32138;50.966;6.968;2022-07-29T10:21:27;21.60;62.40
46440;DHT22;32138;50.966;6.968;2022-07-29T10:23:30;21.70;62.50
46440;DHT22;32138;50.966;6.968;2022-07-29T10:25:32;21.70;62.40
46440;DHT22;32138;50.966;6.968;2022-07-29T10:27:32;21.70;61.20
46440;DHT22;32138;50.966;6.968;2022-07-29T10:29:35;21.70;61.30
46440;DHT22;32138;50.966;6.968;2022-07-29T10:32:21;21.70;61.80
46440;DHT22;32138;50.966;6.968;2022-07-29T10:39:47;21.80;61.60
46440;DHT22;32138;50.966;6.968;2022-07-29T10:44:25;21.90;61.70
46440;DHT22;32138;50.966;6.968;2022-07-29T10:46:28;22.00;61.90
46440;DHT22;32138;50.966;6.968;2022-07-29T10:48:29;22.10;61.70
46440;DHT22;32138;50.966;6.968;2022-07-29T10:52:56;22.40;60.80
46440;DHT22;32138;50.966;6.968;2022-07-29T10:54:57;22.50;61.30
46440;DHT22;32138;50.966;6.968;2022-07-29T11:01:30;22.60;60.00
46440;DHT22;32138;50.966;6.968;2022-07-29T11:05:52;22.70;59.50
46440;DHT22;32138;50.966;6.968;2022-07-29T11:12:52;22.90;59.50
46440;DHT22;32138;50.966;6.968;2022-07-29T11:14:58;23.00;59.50
46440;DHT22;32138;50.966;6.968;2022-07-29T11:17:01;23.00;59.20
46440;DHT22;32138;50.966;6.968;2022-07-29T11:21:36;23.10;59.40
46440;DHT22;32138;50.966;6.968;2022-07-29T11:23:38;23.10;59.20
46440;DHT22;32138;50.966;6.968;2022-07-29T11:25:40;23.10;58.50
46440;DHT22;32138;50.966;6.968;2022-07-29T11:27:41;23.10;58.10
46440;DHT22;32138;50.966;6.968;2022-07-29T11:29:50;23.20;58.10
46440;DHT22;32138;50.966;6.968;2022-07-29T11:31:53;23.20;58.00
46440;DHT22;32138;50.966;6.968;2022-07-29T11:33:57;23.20;56.90
46440;DHT22;32138;50.966;6.968;2022-07-29T11:36:14;23.30;56.20
46440;DHT22;32138;50.966;6.968;2022-07-29T11:38:26;23.40;56.00
46440;DHT22;32138;50.966;6.968;2022-07-29T11:40:28;23.40;56.30
46440;DHT22;32138;50.966;6.968;2022-07-29T11:44:59;23.40;56.10
46440;DHT22;32138;50.966;6.968;2022-07-29T11:47:01;23.50;57.20
46440;DHT22;32138;50.966;6.968;2022-07-29T11:49:02;23.50;57.40
46440;DHT22;32138;50.966;6.968;2022-07-29T11:51:09;23.50;57.20
46440;DHT22;32138;50.966;6.968;2022-07-29T11:53:13;23.60;57.30
46440;DHT22;32138;50.966;6.968;2022-07-29T11:55:16;23.60;56.60
46440;DHT22;32138;50.966;6.968;2022-07-29T11:57:19;23.70;56.10
46440;DHT22;32138;50.966;6.968;2022-07-29T11:59:21;23.70;55.60
46440;DHT22;32138;50.966;6.968;2022-07-29T12:01:21;23.80;55.20
46440;DHT22;32138;50.966;6.968;2022-07-29T12:03:28;23.70;54.40
46440;DHT22;32138;50.966;6.968;2022-07-29T12:05:36;23.80;54.70
46440;DHT22;32138;50.966;6.968;2022-07-29T12:07:39;23.90;53.20
46440;DHT22;32138;50.966;6.968;2022-07-29T12:09:40;23.90;52.80
46440;DHT22;32138;50.966;6.968;2022-07-29T12:11:40;23.90;52.70
46440;DHT22;32138;50.966;6.968;2022-07-29T12:13:42;24.00;53.00
46440;DHT22;32138;50.966;6.968;2022-07-29T12:15:52;24.00;52.70
46440;DHT22;32138;50.966;6.968;2022-07-29T12:17:54;23.90;52.70
46440;DHT22;32138;50.966;6.968;2022-07-29T12:20:00;23.90;52.90
46440;DHT22;32138;50.966;6.968;2022-07-29T12:22:03;24.00;51.60
46440;DHT22;32138;50.966;6.968;2022-07-29T12:24:03;24.10;51.00
46440;DHT22;32138;50.966;6.968;2022-07-29T12:26:05;24.10;51.60
46440;DHT22;32138;50.966;6.968;2022-07-29T12:28:09;24.20;51.30
46440;DHT22;32138;50.966;6.968;2022-07-29T12:30:14;24.10;50.00
46440;DHT22;32138;50.966;6.968;2022-07-29T12:32:18;24.00;50.20
46440;DHT22;32138;50.966;6.968;2022-07-29T12:34:22;24.10;50.20
46440;DHT22;32138;50.966;6.968;2022-07-29T12:36:24;23.90;50.70
46440;DHT22;32138;50.966;6.968;2022-07-29T12:38:25;23.90;50.10
46440;DHT22;32138;50.966;6.968;2022-07-29T12:40:26;24.00;50.00
46440;DHT22;32138;50.966;6.968;2022-07-29T12:42:27;23.90;50.30
46440;DHT22;32138;50.966;6.968;2022-07-29T12:44:44;24.00;50.30
46440;DHT22;32138;50.966;6.968;2022-07-29T12:47:01;24.10;50.90
46440;DHT22;32138;50.966;6.968;2022-07-29T12:49:04;24.10;50.80
46440;DHT22;32138;50.966;6.968;2022-07-29T12:51:05;24.20;50.80
46440;DHT22;32138;50.966;6.968;2022-07-29T12:53:12;24.20;49.90
46440;DHT22;32138;50.966;6.968;2022-07-29T12:55:14;24.30;50.00
46440;DHT22;32138;50.966;6.968;2022-07-29T12:57:15;24.30;49.50
46440;DHT22;32138;50.966;6.968;2022-07-29T12:59:17;24.40;49.50
46440;DHT22;32138;50.966;6.968;2022-07-29T13:01:22;24.40;49.80
46440;DHT22;32138;50.966;6.968;2022-07-29T13:03:23;24.50;49.80
46440;DHT22;32138;50.966;6.968;2022-07-29T13:05:38;24.50;49.00
46440;DHT22;32138;50.966;6.968;2022-07-29T13:07:47;24.50;49.10
46440;DHT22;32138;50.966;6.968;2022-07-29T13:09:50;24.50;49.60
46440;DHT22;32138;50.966;6.968;2022-07-29T13:11:52;24.50;49.20
46440;DHT22;32138;50.966;6.968;2022-07-29T13:13:53;24.60;48.10
46440;DHT22;32138;50.966;6.968;2022-07-29T13:16:07;24.60;48.40
46440;DHT22;32138;50.966;6.968;2022-07-29T13:20:32;24.70;48.20
46440;DHT22;32138;50.966;6.968;2022-07-29T13:22:33;24.70;48.30
46440;DHT22;32138;50.966;6.968;2022-07-29T13:24:45;24.80;47.90
46440;DHT22;32138;50.966;6.968;2022-07-29T13:26:53;24.90;47.00
46440;DHT22;32138;50.966;6.968;2022-07-29T13:28:54;24.80;47.00
46440;DHT22;32138;50.966;6.968;2022-07-29T13:30:55;24.80;47.20
46440;DHT22;32138;50.966;6.968;2022-07-29T13:32:56;24.80;47.10
46440;DHT22;32138;50.966;6.968;2022-07-29T13:34:59;24.90;47.80
46440;DHT22;32138;50.966;6.968;2022-07-29T13:37:00;25.10;47.20
46440;DHT22;32138;50.966;6.968;2022-07-29T13:39:01;25.10;47.30
46440;DHT22;32138;50.966;6.968;2022-07-29T13:41:02;25.10;48.00
46440;DHT22;32138;50.966;6.968;2022-07-29T13:43:03;25.20;47.90